createdAt,value
2023-04-24T00:01:08.763Z,9.93
2023-04-24T00:03:36.094Z,9.88
2023-04-24T00:06:03.815Z,9.88
2023-04-24T00:08:30.707Z,9.88
2023-04-24T00:10:58.198Z,9.87
2023-04-24T00:13:25.259Z,9.85
2023-04-24T00:15:51.976Z,9.85
2023-04-24T00:18:18.648Z,9.89
2023-04-24T00:20:45.689Z,9.92
2023-04-24T00:23:12.361Z,9.99
2023-04-24T00:25:39.227Z,10.07
2023-04-24T00:28:05.857Z,10.16
2023-04-24T00:30:32.585Z,10.23
2023-04-24T00:32:59.450Z,10.33
2023-04-24T00:35:26.272Z,10.36
2023-04-24T00:37:52.830Z,10.36
2023-04-24T00:40:19.528Z,10.24
2023-04-24T00:42:46.622Z,10.23
2023-04-24T00:45:13.964Z,10.24
2023-04-24T00:47:41.515Z,10.25
2023-04-24T00:50:08.981Z,10.28
2023-04-24T00:52:35.772Z,10.34
2023-04-24T00:55:02.470Z,10.40
2023-04-24T00:57:29.518Z,10.43
2023-04-24T00:59:56.220Z,10.34
2023-04-24T01:02:24.225Z,10.32
2023-04-24T01:04:52.132Z,10.35
2023-04-24T01:07:22.640Z,10.39
2023-04-24T01:09:52.325Z,10.41
2023-04-24T01:12:20.015Z,10.44
2023-04-24T01:14:46.981Z,10.48
2023-04-24T01:17:13.832Z,10.56
2023-04-24T01:19:41.431Z,10.52
2023-04-24T01:22:13.893Z,10.47
2023-04-24T01:24:40.557Z,10.51
2023-04-24T01:27:07.729Z,10.57
2023-04-24T01:29:35.475Z,10.66
2023-04-24T01:32:02.208Z,10.74
2023-04-24T01:34:28.948Z,10.78
2023-04-24T01:36:55.709Z,10.86
2023-04-24T01:39:24.236Z,10.93
2023-04-24T01:41:51.497Z,11.00
2023-04-24T01:44:18.654Z,11.07
2023-04-24T01:46:45.821Z,11.15
2023-04-24T01:49:12.595Z,11.22
2023-04-24T01:51:39.502Z,11.28
2023-04-24T01:54:06.828Z,11.34
2023-04-24T01:56:36.770Z,11.41
2023-04-24T01:59:04.812Z,11.46
2023-04-24T02:01:37.226Z,11.51
2023-04-24T02:04:04.736Z,11.53
2023-04-24T02:06:32.525Z,11.53
2023-04-24T02:09:02.774Z,11.53
2023-04-24T02:11:29.323Z,11.56
2023-04-24T02:13:55.963Z,11.58
2023-04-24T02:16:22.747Z,11.60
2023-04-24T02:18:49.487Z,11.63
2023-04-24T02:21:16.089Z,11.60
2023-04-24T02:23:42.657Z,11.61
2023-04-24T02:26:09.487Z,11.62
2023-04-24T02:28:36.041Z,11.67
2023-04-24T02:31:02.674Z,11.65
2023-04-24T02:33:29.277Z,11.62
2023-04-24T02:35:55.936Z,11.56
2023-04-24T02:38:22.558Z,11.56
2023-04-24T02:40:49.165Z,11.58
2023-04-24T02:43:15.811Z,11.53
2023-04-24T02:45:42.514Z,11.52
2023-04-24T02:48:09.272Z,11.54
2023-04-24T02:50:37.998Z,11.56
2023-04-24T02:53:04.677Z,11.60
2023-04-24T02:55:31.355Z,11.57
2023-04-24T02:57:57.933Z,11.58
2023-04-24T03:00:24.718Z,11.59
2023-04-24T03:02:51.767Z,11.60
2023-04-24T03:05:18.607Z,11.39
2023-04-24T03:07:46.547Z,11.37
2023-04-24T03:10:13.265Z,11.38
2023-04-24T03:12:39.923Z,11.36
2023-04-24T03:15:07.134Z,11.40
2023-04-24T03:17:33.947Z,11.39
2023-04-24T03:20:00.557Z,11.36
2023-04-24T03:22:27.113Z,11.34
2023-04-24T03:24:53.716Z,11.35
2023-04-24T03:27:20.346Z,11.37
2023-04-24T03:29:46.931Z,11.34
2023-04-24T03:32:13.460Z,11.32
2023-04-24T03:34:40.017Z,11.28
2023-04-24T03:37:06.538Z,11.24
2023-04-24T03:39:33.079Z,11.23
2023-04-24T03:41:59.623Z,11.24
2023-04-24T03:44:26.264Z,11.15
2023-04-24T03:46:52.815Z,11.15
2023-04-24T03:49:19.389Z,11.19
2023-04-24T03:51:46.241Z,11.17
2023-04-24T03:54:12.818Z,11.17
2023-04-24T03:56:41.490Z,11.19
2023-04-24T03:59:08.139Z,11.21
2023-04-24T04:01:37.786Z,11.23
2023-04-24T04:04:05.148Z,11.24
2023-04-24T04:06:31.975Z,11.23
2023-04-24T04:08:59.156Z,11.24
2023-04-24T04:11:26.439Z,11.26
2023-04-24T04:13:53.175Z,11.32
2023-04-24T04:16:19.866Z,11.35
2023-04-24T04:18:46.791Z,11.37
2023-04-24T04:21:13.437Z,11.37
2023-04-24T04:23:41.315Z,11.39
2023-04-24T04:26:08.976Z,11.42
2023-04-24T04:28:35.857Z,11.46
2023-04-24T04:31:02.390Z,11.49
2023-04-24T04:33:28.965Z,11.54
2023-04-24T04:35:57.715Z,11.59
2023-04-24T04:38:24.420Z,11.61
2023-04-24T04:40:51.106Z,11.67
2023-04-24T04:43:17.699Z,11.71
2023-04-24T04:45:44.474Z,11.76
2023-04-24T04:48:13.822Z,11.79
2023-04-24T04:50:40.559Z,11.83
2023-04-24T04:53:07.989Z,11.87
2023-04-24T04:55:34.606Z,11.88
2023-04-24T04:58:01.963Z,11.90
2023-04-24T05:00:29.985Z,11.94
2023-04-24T05:03:05.966Z,11.99
2023-04-24T05:05:41.625Z,12.03
2023-04-24T05:08:19.753Z,12.08
2023-04-24T05:10:52.759Z,12.11
2023-04-24T05:13:28.276Z,12.17
2023-04-24T05:15:58.888Z,12.22
2023-04-24T05:18:25.671Z,12.29
2023-04-24T05:20:52.315Z,12.33
2023-04-24T05:23:18.852Z,12.37
2023-04-24T05:25:45.777Z,12.41
2023-04-24T05:28:12.334Z,12.43
2023-04-24T05:30:38.941Z,12.48
2023-04-24T05:33:05.577Z,12.54
2023-04-24T05:35:32.242Z,12.56
2023-04-24T05:37:58.912Z,12.60
2023-04-24T05:40:25.450Z,12.66
2023-04-24T05:42:51.998Z,12.73
2023-04-24T05:45:18.661Z,12.82
2023-04-24T05:47:46.013Z,12.84
2023-04-24T05:50:13.219Z,12.89
2023-04-24T05:52:39.806Z,12.97
2023-04-24T05:55:06.698Z,13.03
2023-04-24T05:57:33.305Z,13.11
2023-04-24T05:59:59.908Z,13.15
2023-04-24T06:02:27.104Z,13.21
2023-04-24T06:04:54.171Z,13.29
2023-04-24T06:07:21.376Z,13.36
2023-04-24T06:09:48.991Z,13.42
2023-04-24T06:12:15.674Z,13.47
2023-04-24T06:14:42.288Z,13.45
2023-04-24T06:17:08.862Z,13.47
2023-04-24T06:19:35.535Z,13.48
2023-04-24T06:22:02.128Z,13.48
2023-04-24T06:24:29.479Z,13.47
2023-04-24T06:26:57.724Z,13.46
2023-04-24T06:29:24.329Z,13.43
2023-04-24T06:31:51.100Z,13.44
2023-04-24T06:34:17.689Z,13.51
2023-04-24T06:36:44.381Z,13.60
2023-04-24T06:39:11.242Z,13.66
2023-04-24T06:41:37.782Z,13.77
2023-04-24T06:44:04.360Z,13.78
2023-04-24T06:46:31.010Z,13.86
2023-04-24T06:48:57.741Z,13.91
2023-04-24T06:51:25.086Z,13.94
2023-04-24T06:53:52.872Z,13.99
2023-04-24T06:56:19.436Z,14.08
2023-04-24T06:58:46.336Z,14.17
2023-04-24T07:01:13.376Z,14.22
2023-04-24T07:03:40.160Z,14.23
2023-04-24T07:06:07.583Z,14.24
2023-04-24T07:08:34.231Z,14.19
2023-04-24T07:11:01.504Z,14.20
2023-04-24T07:13:28.095Z,14.22
2023-04-24T07:15:56.227Z,14.23
2023-04-24T07:18:23.728Z,14.19
2023-04-24T07:20:53.383Z,14.22
2023-04-24T07:23:21.081Z,14.22
2023-04-24T07:25:47.990Z,14.28
2023-04-24T07:28:14.576Z,14.26
2023-04-24T07:30:41.274Z,14.35
2023-04-24T07:33:08.046Z,14.51
2023-04-24T07:35:45.150Z,14.48
2023-04-24T07:38:12.423Z,14.58
2023-04-24T07:40:39.045Z,14.69
2023-04-24T07:43:05.833Z,14.66
2023-04-24T07:45:34.693Z,14.70
2023-04-24T07:48:01.317Z,14.77
2023-04-24T07:50:27.953Z,14.88
2023-04-24T07:52:54.500Z,14.99
2023-04-24T07:55:24.195Z,14.99
2023-04-24T07:57:52.558Z,15.13
2023-04-24T08:00:20.852Z,15.28
2023-04-24T08:02:47.549Z,15.40
2023-04-24T08:05:14.542Z,15.47
2023-04-24T08:07:43.356Z,15.52
2023-04-24T08:10:11.849Z,15.56
2023-04-24T08:12:38.918Z,15.49
2023-04-24T08:15:06.839Z,15.48
2023-04-24T08:17:34.666Z,15.55
2023-04-24T08:20:02.310Z,15.60
2023-04-24T08:22:29.526Z,15.74
2023-04-24T08:24:57.968Z,15.82
2023-04-24T08:27:24.965Z,15.73
2023-04-24T08:29:51.657Z,15.79
2023-04-24T08:32:36.688Z,15.92
2023-04-24T08:35:03.617Z,15.90
2023-04-24T08:37:30.404Z,16.07
2023-04-24T08:39:57.761Z,16.18
2023-04-24T08:42:25.262Z,16.39
2023-04-24T08:44:51.888Z,16.57
2023-04-24T08:47:20.425Z,16.73
2023-04-24T08:49:49.162Z,16.92
2023-04-24T08:52:16.870Z,17.02
2023-04-24T08:54:46.478Z,17.00
2023-04-24T08:57:15.889Z,17.14
2023-04-24T08:59:44.363Z,17.11
2023-04-24T09:02:12.918Z,17.07
2023-04-24T09:04:42.062Z,17.22
2023-04-24T09:07:11.505Z,17.24
2023-04-24T09:09:39.946Z,17.42
2023-04-24T09:12:07.058Z,17.57
2023-04-24T09:14:34.114Z,17.69
2023-04-24T09:17:00.869Z,17.87
2023-04-24T09:19:27.490Z,17.94
2023-04-24T09:21:54.079Z,18.01
2023-04-24T09:24:23.779Z,18.08
2023-04-24T09:27:02.627Z,18.20
2023-04-24T09:29:29.609Z,18.24
2023-04-24T09:31:56.546Z,18.40
2023-04-24T09:34:24.939Z,18.55
2023-04-24T09:36:52.154Z,18.42
2023-04-24T09:39:21.268Z,18.51
2023-04-24T09:41:50.232Z,18.60
2023-04-24T09:44:24.419Z,18.73
2023-04-24T09:46:57.659Z,18.79
2023-04-24T09:49:25.650Z,18.83
2023-04-24T09:51:52.427Z,18.89
2023-04-24T09:54:23.612Z,18.91
2023-04-24T09:56:52.539Z,18.70
2023-04-24T09:59:20.802Z,18.33
2023-04-24T10:01:49.674Z,18.23
2023-04-24T10:04:19.156Z,18.32
2023-04-24T10:06:45.864Z,18.49
2023-04-24T10:09:14.741Z,18.58
2023-04-24T10:11:45.141Z,18.70
2023-04-24T10:14:14.845Z,18.80
2023-04-24T10:16:42.138Z,18.73
2023-04-24T10:19:09.382Z,18.65
2023-04-24T10:21:38.712Z,18.59
2023-04-24T10:24:08.506Z,18.66
2023-04-24T10:26:35.896Z,18.75
2023-04-24T10:29:02.707Z,18.69
2023-04-24T10:31:33.834Z,18.72
2023-04-24T10:34:02.166Z,18.88
2023-04-24T10:36:33.379Z,18.87
2023-04-24T10:39:02.452Z,18.87
2023-04-24T10:41:31.801Z,18.69
2023-04-24T10:44:15.972Z,18.94
2023-04-24T10:46:50.657Z,19.16
2023-04-24T10:49:17.424Z,19.21
2023-04-24T10:51:49.658Z,19.10
2023-04-24T10:54:26.902Z,18.96
2023-04-24T10:56:54.000Z,18.90
2023-04-24T10:59:28.757Z,19.01
2023-04-24T11:01:56.447Z,19.09
2023-04-24T11:04:33.905Z,19.17
2023-04-24T11:07:00.999Z,19.29
2023-04-24T11:09:29.605Z,19.51
2023-04-24T11:12:11.973Z,19.41
2023-04-24T11:14:57.073Z,19.56
2023-04-24T11:17:38.406Z,19.63
2023-04-24T11:20:26.767Z,19.66
2023-04-24T11:22:56.419Z,19.53
2023-04-24T11:25:23.964Z,19.52
2023-04-24T11:27:51.397Z,19.50
2023-04-24T11:30:19.851Z,19.54
2023-04-24T11:32:51.271Z,19.67
2023-04-24T11:35:25.788Z,19.80
2023-04-24T11:38:18.687Z,19.76
2023-04-24T11:40:41.213Z,19.97
2023-04-24T11:43:08.295Z,20.26
2023-04-24T11:45:35.418Z,20.53
2023-04-24T11:48:04.645Z,20.80
2023-04-24T11:50:31.713Z,21.02
2023-04-24T11:52:58.713Z,21.05
2023-04-24T11:55:28.062Z,21.14
2023-04-24T11:58:00.415Z,21.03
2023-04-24T12:00:32.455Z,21.00
2023-04-24T12:03:12.593Z,21.05
2023-04-24T12:05:40.689Z,20.99
2023-04-24T12:08:07.433Z,20.96
2023-04-24T12:10:35.647Z,21.21
2023-04-24T12:13:02.391Z,21.38
2023-04-24T12:15:29.737Z,21.32
2023-04-24T12:17:57.285Z,21.52
2023-04-24T12:20:29.699Z,21.75
2023-04-24T12:22:58.506Z,21.91
2023-04-24T12:25:30.092Z,21.68
2023-04-24T12:28:16.922Z,21.60
2023-04-24T12:30:45.789Z,21.63
2023-04-24T12:33:12.869Z,21.58
2023-04-24T12:35:42.114Z,21.44
2023-04-24T12:38:16.612Z,21.11
2023-04-24T12:40:43.937Z,20.93
2023-04-24T12:43:20.385Z,20.77
2023-04-24T12:45:49.949Z,20.59
2023-04-24T12:48:16.872Z,20.36
2023-04-24T12:50:46.390Z,20.07
2023-04-24T12:53:13.996Z,19.76
2023-04-24T12:55:41.180Z,19.35
2023-04-24T12:58:07.771Z,19.25
2023-04-24T13:00:34.622Z,19.07
2023-04-24T13:03:02.212Z,18.85
2023-04-24T13:05:29.136Z,18.85
2023-04-24T13:07:55.819Z,18.69
2023-04-24T13:10:22.505Z,18.58
2023-04-24T13:12:49.077Z,18.59
2023-04-24T13:15:15.710Z,18.50
2023-04-24T13:17:42.312Z,18.18
2023-04-24T13:20:09.117Z,18.11
2023-04-24T13:22:37.271Z,18.05
2023-04-24T13:25:04.682Z,17.86
2023-04-24T13:27:31.611Z,17.78
2023-04-24T13:29:58.233Z,17.48
2023-04-24T13:32:24.879Z,17.27
2023-04-24T13:34:51.493Z,17.06
2023-04-24T13:37:18.074Z,17.00
2023-04-24T13:39:44.658Z,16.90
2023-04-24T13:42:11.789Z,16.82
2023-04-24T13:44:38.677Z,16.76
2023-04-24T13:47:05.343Z,16.81
2023-04-24T13:49:31.929Z,16.72
2023-04-24T13:51:58.557Z,16.48
2023-04-24T13:54:26.896Z,16.27
2023-04-24T13:56:53.998Z,16.30
2023-04-24T13:59:23.599Z,16.20
2023-04-24T14:01:50.547Z,16.05
2023-04-24T14:04:17.467Z,15.94
2023-04-24T14:06:45.463Z,16.00
2023-04-24T14:09:13.887Z,15.69
2023-04-24T14:11:40.635Z,15.71
2023-04-24T14:14:07.460Z,15.86
2023-04-24T14:16:34.256Z,16.08
2023-04-24T14:19:00.903Z,16.22
2023-04-24T14:21:27.507Z,16.16
2023-04-24T14:23:54.097Z,16.18
2023-04-24T14:26:20.983Z,16.27
2023-04-24T14:28:47.582Z,16.28
2023-04-24T14:31:14.336Z,16.23
2023-04-24T14:33:40.996Z,16.77
2023-04-24T14:36:07.695Z,17.20
2023-04-24T14:38:35.068Z,17.44
2023-04-24T14:43:31.923Z,17.27
2023-04-24T14:45:58.592Z,17.33
2023-04-24T14:48:25.782Z,17.24
2023-04-24T14:50:52.535Z,17.10
2023-04-24T14:53:19.748Z,17.00
2023-04-24T14:55:46.386Z,17.06
2023-04-24T14:58:13.140Z,16.91
2023-04-24T15:00:39.896Z,16.81
2023-04-24T15:03:06.919Z,16.63
2023-04-24T15:05:33.898Z,16.66
2023-04-24T15:08:00.836Z,16.59
2023-04-24T15:10:27.426Z,16.63
2023-04-24T15:12:54.061Z,16.61
2023-04-24T15:15:20.778Z,16.58
2023-04-24T15:17:47.419Z,16.41
2023-04-24T15:20:14.177Z,16.30
2023-04-24T15:22:40.843Z,16.17
2023-04-24T15:25:08.017Z,16.13
2023-04-24T15:27:44.600Z,16.11
2023-04-24T15:30:12.446Z,16.08
2023-04-24T15:32:39.941Z,16.10
2023-04-24T15:35:08.962Z,16.13
2023-04-24T15:37:37.286Z,16.10
2023-04-24T15:40:06.567Z,16.01
2023-04-24T15:42:33.738Z,15.92
2023-04-24T15:45:00.411Z,15.80
2023-04-24T15:47:27.136Z,15.78
2023-04-24T15:49:54.336Z,15.67
2023-04-24T15:52:39.622Z,15.59
2023-04-24T15:55:06.610Z,15.57
2023-04-24T15:57:33.258Z,15.46
2023-04-24T16:00:00.409Z,15.36
2023-04-24T16:02:27.526Z,15.37
2023-04-24T16:04:54.919Z,15.34
2023-04-24T16:07:21.691Z,15.35
2023-04-24T16:09:48.846Z,15.19
2023-04-24T16:12:15.937Z,15.10
2023-04-24T16:14:42.501Z,14.98
2023-04-24T16:17:09.359Z,14.91
2023-04-24T16:19:36.069Z,14.85
2023-04-24T16:22:03.381Z,14.91
2023-04-24T16:24:30.545Z,14.88
2023-04-24T16:26:57.717Z,14.86
2023-04-24T16:29:24.591Z,14.86
2023-04-24T16:31:51.485Z,14.85
2023-04-24T16:34:18.118Z,14.82
2023-04-24T16:36:44.731Z,14.84
2023-04-24T16:39:11.310Z,14.83
2023-04-24T16:41:37.947Z,14.84
2023-04-24T16:44:04.553Z,14.83
2023-04-24T16:46:31.265Z,14.89
2023-04-24T16:48:58.364Z,14.92
2023-04-24T16:51:24.920Z,14.81
2023-04-24T16:53:51.533Z,14.74
2023-04-24T16:56:18.125Z,14.72
2023-04-24T16:58:44.777Z,14.72
2023-04-24T17:01:11.438Z,14.69
2023-04-24T17:03:38.423Z,14.56
2023-04-24T17:06:05.539Z,14.50
2023-04-24T17:08:32.872Z,14.51
2023-04-24T17:10:59.464Z,14.42
2023-04-24T17:13:26.176Z,14.35
2023-04-24T17:15:52.760Z,14.20
2023-04-24T17:18:19.761Z,14.17
2023-04-24T17:20:46.376Z,14.13
2023-04-24T17:23:13.714Z,14.04
2023-04-24T17:25:40.549Z,13.99
2023-04-24T17:28:23.869Z,13.96
2023-04-24T17:30:50.570Z,14.00
2023-04-24T17:33:17.143Z,14.02
2023-04-24T17:35:43.774Z,13.96
2023-04-24T17:38:10.806Z,13.93
2023-04-24T17:40:38.498Z,13.93
2023-04-24T17:43:05.399Z,13.99
2023-04-24T17:45:32.241Z,13.95
2023-04-24T17:47:58.960Z,13.89
2023-04-24T17:50:25.848Z,13.85
2023-04-24T17:52:52.429Z,13.82
2023-04-24T17:55:19.002Z,13.73
2023-04-24T17:57:45.755Z,13.64
2023-04-24T18:00:13.262Z,13.62
2023-04-24T18:02:39.951Z,13.67
2023-04-24T18:05:06.908Z,13.61
2023-04-24T18:07:34.094Z,13.54
2023-04-24T18:10:00.837Z,13.49
2023-04-24T18:12:27.620Z,13.47
2023-04-24T18:15:02.996Z,13.42
2023-04-24T18:17:40.162Z,13.37
2023-04-24T18:20:07.385Z,13.34
2023-04-24T18:22:34.015Z,13.23
2023-04-24T18:25:01.311Z,13.20
2023-04-24T18:27:31.082Z,13.18
2023-04-24T18:29:58.642Z,13.12
2023-04-24T18:32:26.252Z,13.08
2023-04-24T18:34:53.151Z,13.01
2023-04-24T18:37:19.733Z,12.91
2023-04-24T18:39:46.315Z,12.91
2023-04-24T18:42:12.966Z,12.88
2023-04-24T18:44:41.272Z,12.87
2023-04-24T18:47:08.415Z,12.88
2023-04-24T18:49:35.249Z,12.87
2023-04-24T18:52:01.974Z,12.88
2023-04-24T18:54:29.012Z,12.79
2023-04-24T18:56:56.858Z,12.80
2023-04-24T18:59:23.434Z,12.86
2023-04-24T19:01:50.307Z,12.84
2023-04-24T19:04:18.115Z,12.84
2023-04-24T19:06:44.764Z,12.84
2023-04-24T19:09:11.369Z,12.84
2023-04-24T19:11:37.983Z,12.83
2023-04-24T19:14:05.737Z,12.81
2023-04-24T19:16:32.381Z,12.75
2023-04-24T19:18:59.083Z,12.74
2023-04-24T19:21:26.251Z,12.66
2023-04-24T19:23:53.109Z,12.66
2023-04-24T19:26:19.728Z,12.69
2023-04-24T19:28:47.627Z,12.71
2023-04-24T19:31:14.275Z,12.63
2023-04-24T19:33:40.914Z,12.59
2023-04-24T19:36:07.723Z,12.61
2023-04-24T19:38:34.536Z,12.61
2023-04-24T19:41:01.138Z,12.61
2023-04-24T19:43:27.650Z,12.60
2023-04-24T19:45:54.233Z,12.62
2023-04-24T19:48:20.936Z,12.62
2023-04-24T19:50:47.574Z,12.58
2023-04-24T19:53:14.722Z,12.51
2023-04-24T19:55:41.387Z,12.44
2023-04-24T19:58:08.326Z,12.44
2023-04-24T20:00:35.154Z,12.49
2023-04-24T20:03:03.009Z,12.52
2023-04-24T20:05:29.802Z,12.53
2023-04-24T20:07:56.482Z,12.53
2023-04-24T20:10:23.173Z,12.52
2023-04-24T20:12:49.802Z,12.51
2023-04-24T20:15:16.596Z,12.44
2023-04-24T20:17:43.159Z,12.42
2023-04-24T20:20:10.580Z,12.44
2023-04-24T20:22:40.085Z,12.38
2023-04-24T20:25:11.574Z,12.33
2023-04-24T20:27:38.230Z,12.34
2023-04-24T20:30:05.258Z,12.34
2023-04-24T20:32:33.098Z,12.31
2023-04-24T20:34:59.742Z,12.30
2023-04-24T20:37:26.276Z,12.27
2023-04-24T20:39:52.815Z,12.28
2023-04-24T20:42:19.632Z,12.28
2023-04-24T20:44:46.243Z,12.27
2023-04-24T20:47:12.911Z,12.29
2023-04-24T20:49:39.591Z,12.32
2023-04-24T20:52:06.550Z,12.34
2023-04-24T20:54:35.225Z,12.35
2023-04-24T20:57:01.976Z,12.28
2023-04-24T20:59:28.696Z,12.25
2023-04-24T21:01:55.410Z,12.26
2023-04-24T21:04:22.036Z,12.27
2023-04-24T21:06:48.600Z,12.28
2023-04-24T21:09:15.233Z,12.28
2023-04-24T21:11:42.166Z,12.26
2023-04-24T21:14:08.849Z,12.17
2023-04-24T21:16:37.190Z,12.13
2023-04-24T21:19:04.376Z,12.15
2023-04-24T21:21:30.982Z,12.17
2023-04-24T21:23:57.557Z,12.21
2023-04-24T21:26:24.148Z,12.16
2023-04-24T21:28:51.723Z,12.14
2023-04-24T21:31:18.276Z,12.18
2023-04-24T21:33:44.844Z,12.17
2023-04-24T21:36:11.411Z,12.16
2023-04-24T21:38:39.902Z,12.17
2023-04-24T21:41:06.466Z,12.18
2023-04-24T21:43:44.023Z,12.19
2023-04-24T21:46:11.507Z,12.13
2023-04-24T21:48:38.166Z,12.10
2023-04-24T21:51:04.766Z,12.10
2023-04-24T21:53:31.320Z,12.10
2023-04-24T21:55:58.024Z,12.08
2023-04-24T21:58:24.869Z,12.08
2023-04-24T22:00:51.461Z,12.07
2023-04-24T22:03:18.209Z,12.08
2023-04-24T22:05:45.002Z,12.06
2023-04-24T22:08:11.672Z,12.08
2023-04-24T22:10:38.272Z,12.06
2023-04-24T22:13:04.880Z,12.06
2023-04-24T22:15:31.650Z,12.04
2023-04-24T22:17:58.911Z,12.01
2023-04-24T22:20:25.934Z,11.99
2023-04-24T22:22:52.682Z,11.99
2023-04-24T22:25:19.348Z,11.95
2023-04-24T22:27:45.942Z,11.95
2023-04-24T22:30:12.889Z,11.94
2023-04-24T22:32:39.627Z,11.91
2023-04-24T22:35:07.175Z,11.90
2023-04-24T22:37:33.844Z,11.87
2023-04-24T22:40:01.789Z,11.83
2023-04-24T22:42:29.469Z,11.79
2023-04-24T22:44:56.222Z,11.78
2023-04-24T22:47:22.940Z,11.76
2023-04-24T22:49:49.569Z,11.72
2023-04-24T22:52:17.182Z,11.72
2023-04-24T22:54:43.973Z,11.69
2023-04-24T22:57:12.385Z,11.70
2023-04-24T22:59:39.281Z,11.69
2023-04-24T23:02:05.951Z,11.65
2023-04-24T23:04:32.722Z,11.67
2023-04-24T23:06:59.334Z,11.68
2023-04-24T23:09:25.913Z,11.64
2023-04-24T23:11:52.834Z,11.64
2023-04-24T23:14:19.443Z,11.64
2023-04-24T23:16:46.500Z,11.64
2023-04-24T23:19:13.293Z,11.59
2023-04-24T23:21:39.904Z,11.57
2023-04-24T23:24:06.570Z,11.57
2023-04-24T23:26:33.233Z,11.57
2023-04-24T23:29:00.073Z,11.55
2023-04-24T23:31:26.715Z,11.52
2023-04-24T23:33:53.293Z,11.54
2023-04-24T23:36:19.865Z,11.56
2023-04-24T23:38:50.276Z,11.56
2023-04-24T23:41:18.130Z,11.56
2023-04-24T23:43:44.691Z,11.56
2023-04-24T23:46:11.505Z,11.57
2023-04-24T23:48:38.106Z,11.52
2023-04-24T23:51:04.915Z,11.54
2023-04-24T23:53:31.686Z,11.54
2023-04-24T23:55:58.283Z,11.53
2023-04-24T23:58:24.836Z,11.51
